Time;durP1;ratioP1;P1;durP2;ratioP2;P2;SDS_P1;SDS_P2;PMS_P1;PMS_P2;Temp;Humidity;BMP_temperature;BMP_pressure;BME280_temperature;BME280_humidity;BME280_pressure;Samples;Min_cycle;Max_cycle;Signal;HPM_P1;HPM_P2
2023/08/10 00:01:40;;;;;;;3.40;3.40;;;;;;;13.80;82.36;101730.50;5016388;28;20193;-66
2023/08/10 00:04:06;;;;;;;2.60;2.60;;;;;;;13.78;82.48;101723.56;5016256;28;20572;-67
2023/08/10 00:06:33;;;;;;;7.37;2.97;;;;;;;13.93;81.69;101732.84;5016284;28;20590;-67
2023/08/10 00:08:59;;;;;;;6.83;3.80;;;;;;;13.86;82.08;101724.53;5016238;28;20592;-67
2023/08/10 00:11:26;;;;;;;2.90;2.80;;;;;;;13.75;82.23;101715.81;5016042;28;20188;-66
2023/08/10 00:13:52;;;;;;;2.40;2.30;;;;;;;13.71;82.46;101717.94;5015900;28;20248;-67
2023/08/10 00:16:19;;;;;;;8.67;2.10;;;;;;;13.72;83.01;101714.25;5015854;28;20185;-67
2023/08/10 00:18:45;;;;;;;2.67;2.60;;;;;;;13.72;83.03;101716.94;5015966;28;20269;-67
2023/08/10 00:21:12;;;;;;;2.90;2.80;;;;;;;13.75;83.06;101721.19;5016265;28;20184;-67
2023/08/10 00:23:38;;;;;;;2.43;2.43;;;;;;;13.76;83.21;101728.25;5015651;28;20209;-67
2023/08/10 00:26:05;;;;;;;3.53;2.70;;;;;;;13.78;82.22;101732.50;5015646;28;20188;-67
2023/08/10 00:28:32;;;;;;;2.97;2.87;;;;;;;13.73;82.95;101730.25;5015830;28;20528;-67
2023/08/10 00:30:59;;;;;;;2.50;2.50;;;;;;;13.71;83.12;101732.22;5015586;28;20315;-66
2023/08/10 00:33:26;;;;;;;3.10;2.90;;;;;;;13.70;83.20;101722.50;5014685;28;20579;-67
2023/08/10 00:36:09;;;;;;;3.57;3.47;;;;;;;13.73;83.29;101724.03;5014265;28;20236;-67
2023/08/10 00:38:38;;;;;;;3.03;2.83;;;;;;;13.75;83.59;101731.94;5015616;28;20197;-67
2023/08/10 00:41:04;;;;;;;3.13;2.93;;;;;;;13.77;83.55;101728.09;5015372;28;20734;-67
2023/08/10 00:43:31;;;;;;;4.13;2.60;;;;;;;13.87;83.44;101731.59;5015244;28;20212;-67
2023/08/10 00:45:59;;;;;;;3.10;2.80;;;;;;;13.87;83.55;101730.75;5014021;28;20196;-67
2023/08/10 00:48:26;;;;;;;2.50;2.50;;;;;;;13.74;83.78;101725.72;5015470;28;20181;-67
2023/08/10 00:50:53;;;;;;;2.40;2.40;;;;;;;13.68;84.24;101732.53;5015164;28;20193;-67
2023/08/10 00:53:21;;;;;;;2.33;2.23;;;;;;;13.66;84.39;101726.44;5013802;28;20602;-67
2023/08/10 00:55:51;;;;;;;3.27;3.10;;;;;;;13.72;84.51;101733.91;5015097;28;20275;-67
2023/08/10 00:58:19;;;;;;;3.27;3.00;;;;;;;13.82;83.77;101738.41;5015258;28;20251;-67
2023/08/10 01:00:46;;;;;;;2.80;2.80;;;;;;;13.74;84.20;101733.78;5030246;28;20208;-67
2023/08/10 01:03:13;;;;;;;5.63;2.53;;;;;;;13.72;84.63;101727.69;5013615;28;20663;-67
2023/08/10 01:05:56;;;;;;;2.43;2.43;;;;;;;13.72;84.34;101725.00;5015160;28;20176;-67
2023/08/10 01:08:32;;;;;;;3.00;3.00;;;;;;;13.73;84.54;101729.41;5013949;28;20184;-66
2023/08/10 01:11:05;;;;;;;2.70;2.70;;;;;;;13.72;84.59;101727.69;5014479;28;20189;-66
2023/08/10 01:13:59;;;;;;;3.03;2.50;;;;;;;13.73;84.58;101732.94;5014600;28;20218;-67
2023/08/10 01:16:27;;;;;;;2.87;2.87;;;;;;;13.73;84.57;101737.47;5005774;28;20197;-67
2023/08/10 01:18:54;;;;;;;2.83;2.83;;;;;;;13.76;84.66;101733.63;5014616;28;20246;-67
2023/08/10 01:21:29;;;;;;;2.90;2.80;;;;;;;13.77;84.24;101743.38;5013391;28;20203;-67
2023/08/10 01:24:03;;;;;;;2.43;2.13;;;;;;;13.76;84.43;101734.47;5014607;28;20203;-67
2023/08/10 01:26:29;;;;;;;3.33;2.90;;;;;;;13.78;84.63;101743.25;5014848;28;20636;-67
2023/08/10 01:28:56;;;;;;;3.67;2.93;;;;;;;13.83;84.53;101750.88;5014507;28;20547;-67
2023/08/10 01:31:23;;;;;;;3.20;2.93;;;;;;;13.83;84.63;101745.50;5014460;28;20192;-67
2023/08/10 01:33:50;;;;;;;2.90;2.90;;;;;;;13.79;84.56;101762.91;5014313;28;20768;-67
2023/08/10 01:36:16;;;;;;;2.93;2.93;;;;;;;13.78;84.53;101761.22;5014900;28;20662;-67
2023/08/10 01:38:43;;;;;;;2.50;2.50;;;;;;;13.74;84.99;101757.97;5014508;28;20208;-67
2023/08/10 01:41:09;;;;;;;3.23;3.03;;;;;;;13.72;85.02;101762.63;5013046;28;20607;-67
2023/08/10 01:43:36;;;;;;;3.13;3.03;;;;;;;13.70;84.95;101761.94;5014461;28;20216;-67
2023/08/10 01:46:04;;;;;;;3.37;3.10;;;;;;;13.70;84.87;101767.31;5014450;28;20206;-67
2023/08/10 01:48:36;;;;;;;3.30;2.77;;;;;;;13.78;84.98;101763.91;5014695;28;20177;-67
2023/08/10 01:51:06;;;;;;;2.40;2.40;;;;;;;13.75;84.75;101767.69;5014398;28;20177;-67
2023/08/10 01:53:35;;;;;;;2.67;2.67;;;;;;;13.71;85.10;101760.94;5012787;28;20274;-67
2023/08/10 01:56:03;;;;;;;3.37;3.33;;;;;;;13.70;85.10;101762.81;5012757;28;20671;-67
2023/08/10 01:58:30;;;;;;;4.20;2.67;;;;;;;13.71;84.97;101769.84;5029124;28;20208;-67
2023/08/10 02:00:56;;;;;;;3.00;2.83;;;;;;;13.75;84.97;101774.94;5013972;28;20196;-67
2023/08/10 02:03:23;;;;;;;2.93;2.83;;;;;;;13.73;85.03;101775.94;5012591;28;20593;-67
2023/08/10 02:05:50;;;;;;;3.23;3.13;;;;;;;13.73;84.76;101786.69;5014144;28;20216;-67
2023/08/10 02:08:16;;;;;;;4.20;3.03;;;;;;;13.69;84.81;101785.28;5014118;28;20185;-67
2023/08/10 02:10:42;;;;;;;2.63;2.47;;;;;;;13.68;84.64;101780.91;5013791;28;20192;-67
2023/08/10 02:13:09;;;;;;;3.07;2.80;;;;;;;13.65;84.76;101778.50;5013644;28;20189;-67
2023/08/10 02:15:35;;;;;;;2.37;2.37;;;;;;;13.65;84.64;101786.56;5013742;28;20206;-67
2023/08/10 02:18:02;;;;;;;2.60;2.50;;;;;;;13.66;84.43;101782.88;5013649;28;20214;-67
2023/08/10 02:20:29;;;;;;;3.40;2.50;;;;;;;13.68;84.53;101788.97;5013059;28;20188;-67
2023/08/10 02:22:55;;;;;;;5.67;3.37;;;;;;;13.66;84.58;101780.19;5013675;28;20195;-67
2023/08/10 02:25:24;;;;;;;6.13;2.53;;;;;;;13.64;84.42;101784.03;5013798;28;20216;-67
2023/08/10 02:27:51;;;;;;;4.00;3.70;;;;;;;13.69;84.25;101776.38;5012331;28;20566;-67
2023/08/10 02:30:18;;;;;;;2.80;2.57;;;;;;;13.70;84.08;101784.31;5013567;28;20188;-67
2023/08/10 02:32:44;;;;;;;3.43;3.13;;;;;;;13.77;83.23;101773.78;5013536;28;20188;-67
2023/08/10 02:35:11;;;;;;;3.30;3.20;;;;;;;13.71;83.61;101772.53;5013457;28;20208;-67
2023/08/10 02:37:37;;;;;;;5.30;3.07;;;;;;;13.82;82.99;101766.16;5013685;28;20211;-67
2023/08/10 02:40:05;;;;;;;2.90;2.80;;;;;;;13.84;82.99;101765.97;5012203;28;20196;-67
2023/08/10 02:42:32;;;;;;;7.20;3.00;;;;;;;13.72;83.29;101763.47;5013985;28;20192;-67
2023/08/10 02:44:59;;;;;;;3.93;3.47;;;;;;;13.73;83.32;101769.72;5012074;28;20695;-67
2023/08/10 02:47:26;;;;;;;3.03;2.70;;;;;;;13.70;83.59;101770.88;5013402;28;20196;-67
2023/08/10 02:49:53;;;;;;;10.00;3.00;;;;;;;13.78;82.98;101772.81;5012141;28;20216;-67
2023/08/10 02:52:19;;;;;;;3.40;3.27;;;;;;;13.76;83.20;101777.47;5013662;28;20164;-67
2023/08/10 02:54:46;;;;;;;2.67;2.50;;;;;;;13.81;83.06;101771.66;5013315;28;20200;-67
2023/08/10 02:57:12;;;;;;;2.90;2.70;;;;;;;13.84;83.03;101765.97;5012033;28;20188;-67
2023/08/10 02:59:39;;;;;;;3.47;3.37;;;;;;;13.79;82.97;101760.22;5011959;28;20208;-67
2023/08/10 03:02:06;;;;;;;2.80;2.80;;;;;;;13.69;83.48;101765.63;5013557;28;20560;-67
2023/08/10 03:04:33;;;;;;;2.80;2.60;;;;;;;13.62;83.88;101769.91;5011990;28;20298;-67
2023/08/10 03:07:01;;;;;;;2.63;2.63;;;;;;;13.61;84.45;101755.63;5013267;28;20185;-67
2023/08/10 03:09:27;;;;;;;3.20;2.97;;;;;;;13.64;84.45;101758.00;5013187;28;20583;-67
2023/08/10 03:11:54;;;;;;;2.67;2.47;;;;;;;13.65;84.28;101754.31;5011812;28;20211;-67
2023/08/10 03:14:22;;;;;;;2.40;2.40;;;;;;;13.64;84.50;101760.69;5012157;28;20251;-67
2023/08/10 03:16:49;;;;;;;8.90;2.70;;;;;;;13.65;84.57;101761.53;5011895;28;20287;-67
2023/08/10 03:19:15;;;;;;;2.60;2.50;;;;;;;13.65;84.97;101769.59;5011740;28;20209;-67
2023/08/10 03:21:43;;;;;;;2.73;2.60;;;;;;;13.66;84.97;101764.06;5012109;28;20192;-67
2023/08/10 03:24:10;;;;;;;2.90;2.80;;;;;;;13.66;85.05;101768.59;5012398;28;20619;-66
2023/08/10 03:26:37;;;;;;;2.97;2.77;;;;;;;13.66;84.93;101764.06;5011842;28;20651;-66
2023/08/10 03:29:04;;;;;;;2.60;2.40;;;;;;;13.67;84.88;101757.69;5011780;28;20195;-66
2023/08/10 03:31:31;;;;;;;2.97;2.73;;;;;;;13.68;84.81;101754.03;5030396;28;20223;-66
2023/08/10 03:33:57;;;;;;;2.00;2.00;;;;;;;13.69;84.71;101761.09;5015359;28;20220;-67
2023/08/10 03:36:24;;;;;;;3.43;2.70;;;;;;;13.70;84.82;101753.88;5015358;28;20199;-67
2023/08/10 03:38:51;;;;;;;3.50;2.87;;;;;;;13.69;84.78;101755.72;5015183;28;20217;-67
2023/08/10 03:41:18;;;;;;;2.30;2.30;;;;;;;13.69;84.86;101757.56;5015543;28;20230;-67
2023/08/10 03:43:44;;;;;;;2.23;2.23;;;;;;;13.71;84.47;101763.63;5016689;28;20208;-67
2023/08/10 03:46:12;;;;;;;2.90;2.80;;;;;;;13.77;84.62;101768.41;5016721;28;20181;-67
2023/08/10 03:48:38;;;;;;;5.70;3.23;;;;;;;13.95;83.78;101774.72;5015909;28;20643;-67
2023/08/10 03:51:05;;;;;;;3.70;2.90;;;;;;;13.98;83.17;101770.88;5016850;28;20184;-67
2023/08/10 03:53:31;;;;;;;3.13;2.93;;;;;;;13.86;83.76;101785.50;5014924;28;20220;-67
2023/08/10 03:55:58;;;;;;;4.23;3.17;;;;;;;13.84;83.73;101782.09;5015776;28;20195;-67
2023/08/10 03:58:25;;;;;;;7.40;3.20;;;;;;;13.79;83.81;101781.72;5014943;28;20629;-67
2023/08/10 04:00:51;;;;;;;3.37;3.17;;;;;;;13.78;83.90;101793.47;5031379;28;20199;-67
2023/08/10 04:03:18;;;;;;;3.23;3.03;;;;;;;13.72;84.18;101794.88;5014768;28;20667;-67
2023/08/10 04:05:44;;;;;;;2.97;2.90;;;;;;;13.70;84.60;101797.75;5031257;28;20192;-67
2023/08/10 04:08:11;;;;;;;3.10;2.90;;;;;;;13.70;84.26;101803.09;5014757;28;20263;-67
2023/08/10 04:10:38;;;;;;;4.03;3.30;;;;;;;13.75;84.07;101801.81;5016181;28;20195;-67
2023/08/10 04:13:05;;;;;;;3.40;3.30;;;;;;;13.80;83.58;101799.53;5014409;28;20201;-67
2023/08/10 04:15:32;;;;;;;3.40;3.20;;;;;;;13.72;83.41;101808.31;5016171;28;20231;-67
2023/08/10 04:17:59;;;;;;;5.80;3.07;;;;;;;13.70;83.30;101813.00;5014486;28;20203;-67
2023/08/10 04:20:26;;;;;;;3.70;3.50;;;;;;;13.75;83.06;101807.19;5014504;28;20197;-67
2023/08/10 04:22:53;;;;;;;3.37;3.20;;;;;;;13.74;82.43;101811.72;5016237;28;20644;-67
2023/08/10 04:25:20;;;;;;;4.30;4.00;;;;;;;13.67;82.71;101819.50;5015639;28;20208;-67
2023/08/10 04:27:47;;;;;;;4.07;3.67;;;;;;;13.57;83.19;101816.00;5015629;28;20196;-67
2023/08/10 04:30:17;;;;;;;3.27;3.07;;;;;;;13.45;84.00;101813.63;5015555;28;20276;-66
2023/08/10 04:32:43;;;;;;;2.87;2.87;;;;;;;13.40;84.54;101818.56;5016328;28;20176;-66
2023/08/10 04:35:12;;;;;;;3.50;2.80;;;;;;;13.35;84.55;101824.38;5015411;28;20216;-67
2023/08/10 04:37:41;;;;;;;2.70;2.50;;;;;;;13.32;84.85;101824.66;5015731;28;20534;-67
2023/08/10 04:40:09;;;;;;;2.90;2.80;;;;;;;13.30;84.98;101821.25;5015884;28;20208;-66
2023/08/10 04:42:40;;;;;;;2.33;2.33;;;;;;;13.27;84.88;101826.94;5015337;28;20235;-67
2023/08/10 04:45:09;;;;;;;4.17;2.67;;;;;;;13.26;84.92;101828.75;5015218;28;20227;-67
2023/08/10 04:47:36;;;;;;;2.80;2.80;;;;;;;13.25;84.88;101821.69;5015188;28;20222;-67
2023/08/10 04:50:03;;;;;;;3.37;3.33;;;;;;;13.25;85.02;101820.84;5015176;28;20181;-67
2023/08/10 04:52:30;;;;;;;4.80;2.30;;;;;;;13.25;85.39;101826.22;5015453;28;20533;-67
2023/08/10 04:54:56;;;;;;;2.97;2.97;;;;;;;13.24;85.07;101825.34;5015610;28;20212;-67
2023/08/10 04:57:23;;;;;;;3.33;3.00;;;;;;;13.19;85.27;101824.09;5015091;28;20659;-67
2023/08/10 04:59:49;;;;;;;2.53;2.53;;;;;;;13.17;85.17;101832.28;5015238;28;20650;-67
2023/08/10 05:02:16;;;;;;;2.37;2.37;;;;;;;13.14;85.23;101829.03;5014958;28;20559;-67
2023/08/10 05:04:42;;;;;;;2.57;2.57;;;;;;;13.11;85.28;101823.97;5014915;28;20220;-67
2023/08/10 05:07:09;;;;;;;2.57;2.47;;;;;;;13.09;85.22;101832.13;5014881;28;20196;-66
2023/08/10 05:09:35;;;;;;;3.00;2.90;;;;;;;13.08;85.09;101829.56;5015144;28;20187;-66
2023/08/10 05:12:21;;;;;;;3.13;3.03;;;;;;;13.09;85.22;101834.81;5015066;28;20193;-66
2023/08/10 05:14:48;;;;;;;3.17;3.07;;;;;;;13.12;85.09;101841.75;5014826;28;20213;-66
2023/08/10 05:17:15;;;;;;;3.00;2.90;;;;;;;13.13;85.55;101838.09;5014590;28;20287;-66
2023/08/10 05:19:41;;;;;;;3.07;2.97;;;;;;;13.16;85.65;101843.16;5014685;28;20346;-66
2023/08/10 05:22:08;;;;;;;3.13;3.03;;;;;;;13.16;85.54;101835.09;5014491;28;20192;-66
2023/08/10 05:24:34;;;;;;;3.80;3.60;;;;;;;13.17;85.73;101845.72;5014628;28;20216;-67
2023/08/10 05:27:02;;;;;;;3.30;3.03;;;;;;;13.20;85.63;101847.25;5014333;28;20199;-67
2023/08/10 05:29:28;;;;;;;6.43;3.77;;;;;;;13.20;85.56;101839.19;5014825;28;20255;-67
2023/08/10 05:31:55;;;;;;;7.97;3.50;;;;;;;13.19;85.91;101838.38;5014305;28;20247;-67
2023/08/10 05:34:22;;;;;;;3.60;3.40;;;;;;;13.21;85.80;101840.91;5014591;28;20255;-67
2023/08/10 05:36:48;;;;;;;4.97;3.77;;;;;;;13.24;86.01;101840.63;5014911;28;20172;-66
2023/08/10 05:39:15;;;;;;;4.70;4.60;;;;;;;13.28;85.88;101850.94;5014202;28;20231;-66
2023/08/10 05:41:41;;;;;;;4.30;4.20;;;;;;;13.32;86.08;101840.78;5014275;28;20188;-66
2023/08/10 05:44:08;;;;;;;4.90;4.63;;;;;;;13.41;86.07;101842.59;5012906;28;20714;-66
2023/08/10 05:46:34;;;;;;;4.93;4.80;;;;;;;13.46;86.09;101834.94;5014369;28;20176;-66
2023/08/10 05:49:01;;;;;;;5.20;4.73;;;;;;;13.50;86.02;101831.00;5014363;28;20185;-66
2023/08/10 05:51:27;;;;;;;5.57;5.00;;;;;;;13.57;85.96;101832.13;5014118;28;20675;-66
2023/08/10 05:53:54;;;;;;;5.17;4.97;;;;;;;13.63;85.67;101826.16;5013309;28;20208;-67
2023/08/10 05:56:20;;;;;;;6.67;5.30;;;;;;;13.66;85.52;101830.41;5013857;28;20204;-67
2023/08/10 05:58:47;;;;;;;5.67;5.37;;;;;;;13.73;85.51;101832.38;5013930;28;20203;-67
2023/08/10 06:01:13;;;;;;;6.47;6.03;;;;;;;13.85;84.70;101835.72;5013889;28;20200;-67
2023/08/10 06:03:40;;;;;;;5.90;5.50;;;;;;;13.94;84.04;101836.69;5013851;28;20216;-67
2023/08/10 06:06:09;;;;;;;7.47;5.27;;;;;;;13.99;83.90;101845.19;5014387;28;20639;-67
2023/08/10 06:08:36;;;;;;;5.87;5.47;;;;;;;14.05;83.94;101844.56;5013867;28;20220;-66
2023/08/10 06:11:03;;;;;;;5.70;5.40;;;;;;;14.10;84.17;101837.78;5013746;28;20196;-66
2023/08/10 06:13:31;;;;;;;5.30;5.07;;;;;;;14.15;84.08;101831.94;5013644;28;20223;-66
2023/08/10 06:15:57;;;;;;;13.57;5.57;;;;;;;14.25;84.46;101838.16;5014360;28;20173;-67
2023/08/10 06:18:24;;;;;;;5.33;5.03;;;;;;;14.38;83.86;101849.44;5013874;28;20218;-67
2023/08/10 06:20:50;;;;;;;10.23;5.47;;;;;;;14.44;83.77;101835.38;5013638;28;20191;-67
2023/08/10 06:23:18;;;;;;;5.90;5.40;;;;;;;14.48;84.16;101836.78;5012312;28;20315;-67
2023/08/10 06:25:44;;;;;;;3.60;3.50;;;;;;;14.55;84.10;101834.34;5013878;28;20185;-66
2023/08/10 06:28:11;;;;;;;4.03;3.93;;;;;;;14.66;83.80;101830.59;5013591;28;20198;-66
2023/08/10 06:30:37;;;;;;;4.50;4.17;;;;;;;14.74;83.50;101842.28;5013550;28;20181;-66
2023/08/10 06:33:04;;;;;;;4.70;4.43;;;;;;;14.80;83.15;101838.16;5013404;28;20271;-67
2023/08/10 06:35:35;;;;;;;3.73;3.50;;;;;;;14.84;83.17;101845.78;5013808;28;20210;-67
2023/08/10 06:38:04;;;;;;;3.70;3.50;;;;;;;14.87;82.94;101837.38;5013772;28;20187;-67
2023/08/10 06:40:31;;;;;;;4.17;3.77;;;;;;;14.88;82.66;101840.94;5013370;28;20214;-67
2023/08/10 06:42:58;;;;;;;5.67;3.83;;;;;;;14.91;82.74;101837.94;5013717;28;20549;-67
2023/08/10 06:45:37;;;;;;;4.63;3.57;;;;;;;14.95;82.41;101834.78;5012997;28;20203;-67
2023/08/10 06:48:04;;;;;;;4.80;3.43;;;;;;;15.01;82.27;101834.19;5013391;28;20199;-67
2023/08/10 06:50:32;;;;;;;5.60;3.53;;;;;;;15.14;81.60;101833.78;5013871;28;20193;-67
2023/08/10 06:52:58;;;;;;;3.83;3.60;;;;;;;15.37;79.94;101839.53;5013374;28;20208;-67
2023/08/10 06:55:25;;;;;;;2.80;2.70;;;;;;;15.38;79.91;101844.78;5013268;28;20212;-67
2023/08/10 06:57:54;;;;;;;2.90;2.80;;;;;;;15.40;79.95;101845.44;5012163;28;20605;-67
2023/08/10 07:00:22;;;;;;;2.90;2.57;;;;;;;15.47;79.81;101851.94;5013509;28;20212;-67
2023/08/10 07:02:54;;;;;;;3.33;3.07;;;;;;;15.57;79.72;101834.88;5013588;28;20169;-67
2023/08/10 07:05:26;;;;;;;5.70;3.63;;;;;;;15.66;79.24;101839.31;5013923;28;20213;-67
2023/08/10 07:07:53;;;;;;;3.07;2.83;;;;;;;15.77;78.81;101844.44;5017484;28;20340;-67
2023/08/10 07:10:19;;;;;;;2.87;2.73;;;;;;;15.85;78.48;101845.34;5017596;28;20239;-67
2023/08/10 07:12:46;;;;;;;4.37;3.87;;;;;;;15.92;77.90;101857.16;5016883;28;20215;-67
2023/08/10 07:15:13;;;;;;;3.43;3.27;;;;;;;15.99;77.43;101855.56;5016996;28;20258;-66
2023/08/10 07:17:39;;;;;;;2.77;2.73;;;;;;;16.07;77.61;101857.44;5016941;28;20185;-66
2023/08/10 07:20:06;;;;;;;8.40;3.20;;;;;;;16.13;76.70;101853.25;5016860;28;20627;-66
2023/08/10 07:22:33;;;;;;;2.97;2.77;;;;;;;16.16;76.90;101850.25;5017125;28;20188;-66
2023/08/10 07:25:05;;;;;;;4.10;2.50;;;;;;;16.19;76.19;101850.75;5016729;28;20211;-66
2023/08/10 07:27:33;;;;;;;3.07;2.93;;;;;;;16.21;76.22;101837.94;5016807;28;20181;-66
2023/08/10 07:30:05;;;;;;;3.60;2.67;;;;;;;16.33;74.61;101844.78;5016709;28;20682;-66
2023/08/10 07:32:31;;;;;;;9.87;2.53;;;;;;;16.46;72.96;101849.72;5017244;28;20177;-66
2023/08/10 07:34:58;;;;;;;2.53;2.33;;;;;;;16.43;72.08;101850.03;5016557;28;20209;-66
2023/08/10 07:37:24;;;;;;;10.33;2.23;;;;;;;16.55;70.18;101842.50;5016481;28;20193;-66
2023/08/10 07:39:51;;;;;;;3.03;2.33;;;;;;;16.51;69.81;101844.66;5016491;28;20211;-67
2023/08/10 07:42:17;;;;;;;2.37;2.37;;;;;;;16.43;69.35;101848.16;5016503;28;20189;-66
2023/08/10 07:44:44;;;;;;;1.80;1.80;;;;;;;16.48;69.86;101852.25;5016552;28;20223;-66
2023/08/10 07:47:11;;;;;;;4.10;2.40;;;;;;;16.65;69.46;101852.19;5016414;28;20189;-66
2023/08/10 07:49:37;;;;;;;4.63;1.87;;;;;;;16.66;69.70;101851.16;5016903;28;20635;-66
2023/08/10 07:52:04;;;;;;;4.87;2.70;;;;;;;16.72;69.99;101857.78;5016337;28;20216;-66
2023/08/10 07:54:31;;;;;;;2.70;2.60;;;;;;;16.75;68.34;101854.75;5016509;28;20574;-67
2023/08/10 07:56:57;;;;;;;3.00;2.87;;;;;;;16.83;67.29;101855.63;5016215;28;20192;-67
2023/08/10 07:59:24;;;;;;;6.20;3.00;;;;;;;16.83;68.22;101850.22;5014785;28;20231;-66
2023/08/10 08:01:50;;;;;;;2.43;2.33;;;;;;;16.90;66.29;101847.69;5016457;28;20189;-66
2023/08/10 08:04:17;;;;;;;2.33;2.33;;;;;;;16.86;63.83;101847.16;5016178;28;20295;-67
2023/08/10 08:06:43;;;;;;;5.00;2.30;;;;;;;16.75;63.96;101846.66;5016563;28;20255;-67
2023/08/10 08:09:12;;;;;;;5.30;2.53;;;;;;;16.68;64.59;101841.03;5016300;28;20185;-66
2023/08/10 08:11:39;;;;;;;2.57;2.53;;;;;;;16.82;62.84;101845.81;5015811;28;20212;-66
2023/08/10 08:14:05;;;;;;;2.27;2.17;;;;;;;16.98;61.47;101849.53;5016176;28;20624;-67
2023/08/10 08:16:33;;;;;;;3.03;2.03;;;;;;;16.84;61.97;101848.34;5015796;28;20296;-67
2023/08/10 08:19:00;;;;;;;1.87;1.80;;;;;;;16.93;60.85;101854.63;5015049;28;20195;-66
2023/08/10 08:21:29;;;;;;;4.43;1.97;;;;;;;16.94;61.07;101849.03;5015811;28;20203;-66
2023/08/10 08:23:56;;;;;;;2.37;2.17;;;;;;;16.92;59.32;101844.81;5016222;28;20736;-67
2023/08/10 08:26:24;;;;;;;8.90;1.77;;;;;;;16.98;59.08;101844.16;5015694;28;20184;-67
2023/08/10 08:28:51;;;;;;;1.63;1.63;;;;;;;17.11;60.33;101848.06;5015874;28;20204;-66
2023/08/10 08:31:17;;;;;;;2.00;2.00;;;;;;;17.15;60.01;101845.84;5015858;28;20554;-66
2023/08/10 08:33:44;;;;;;;1.70;1.70;;;;;;;17.12;60.50;101844.34;5015415;28;20374;-66
2023/08/10 08:36:10;;;;;;;2.17;2.03;;;;;;;17.11;61.16;101844.50;5015508;28;20215;-66
2023/08/10 08:38:37;;;;;;;2.17;1.90;;;;;;;17.28;63.25;101846.22;5016009;28;20192;-66
2023/08/10 08:41:06;;;;;;;3.43;2.50;;;;;;;17.31;62.04;101844.00;5015612;28;20212;-66
2023/08/10 08:43:34;;;;;;;3.00;2.43;;;;;;;17.35;62.62;101848.06;5015292;28;20204;-67
2023/08/10 08:46:03;;;;;;;3.57;2.20;;;;;;;17.34;62.97;101845.56;5015749;28;20651;-67
2023/08/10 08:48:30;;;;;;;4.87;2.53;;;;;;;17.35;62.53;101847.25;5015311;28;20185;-67
2023/08/10 08:50:57;;;;;;;2.30;2.30;;;;;;;17.39;62.96;101845.06;5015276;28;20572;-66
2023/08/10 08:53:24;;;;;;;2.53;2.43;;;;;;;17.38;61.80;101840.66;5015152;28;20242;-67
2023/08/10 08:55:52;;;;;;;5.40;2.43;;;;;;;17.38;62.23;101840.66;5015150;28;20192;-66
2023/08/10 08:58:18;;;;;;;2.57;2.47;;;;;;;17.50;63.62;101837.44;5015115;28;20227;-67
2023/08/10 09:00:50;;;;;;;3.03;2.67;;;;;;;17.56;63.11;101835.94;5015500;28;20693;-66
2023/08/10 09:03:17;;;;;;;7.90;2.70;;;;;;;17.52;63.44;101832.72;5014891;28;20192;-67
2023/08/10 09:05:46;;;;;;;2.03;2.03;;;;;;;17.52;62.85;101813.78;5014990;28;20231;-67
2023/08/10 09:08:16;;;;;;;2.80;2.70;;;;;;;17.72;63.70;101820.56;5014889;28;20246;-67
2023/08/10 09:10:47;;;;;;;9.83;2.43;;;;;;;17.89;62.90;101821.38;5014870;28;20169;-67
2023/08/10 09:13:14;;;;;;;4.20;2.13;;;;;;;17.79;62.11;101823.41;5014587;28;20247;-67
2023/08/10 09:15:40;;;;;;;2.30;2.30;;;;;;;17.77;63.41;101820.03;5014975;28;20538;-67
2023/08/10 09:18:07;;;;;;;2.23;2.23;;;;;;;17.80;63.26;101820.53;5015245;28;20695;-67
2023/08/10 09:20:34;;;;;;;8.90;2.23;;;;;;;17.98;63.16;101817.63;5014576;28;20590;-67
2023/08/10 09:23:01;;;;;;;2.17;2.07;;;;;;;17.93;64.28;101817.28;5014640;28;20762;-67
2023/08/10 09:25:37;;;;;;;2.20;1.97;;;;;;;17.89;63.99;101821.38;5014403;28;20220;-66
2023/08/10 09:28:10;;;;;;;2.80;2.60;;;;;;;18.14;65.25;101822.97;5014628;28;20182;-66
2023/08/10 09:30:37;;;;;;;2.47;2.37;;;;;;;18.26;62.94;101809.91;5015127;28;20204;-67
2023/08/10 09:33:04;;;;;;;3.73;2.33;;;;;;;18.16;63.39;101820.13;5014941;28;20185;-67
2023/08/10 09:35:31;;;;;;;6.50;2.60;;;;;;;18.15;63.76;101816.56;5014448;28;20185;-66
2023/08/10 09:38:03;;;;;;;2.40;2.40;;;;;;;18.20;63.12;101818.75;5014329;28;20244;-66
2023/08/10 09:40:30;;;;;;;2.30;2.20;;;;;;;18.38;65.40;101811.22;5014607;28;20286;-67
2023/08/10 09:42:56;;;;;;;4.13;2.60;;;;;;;18.41;65.13;101818.16;5014482;28;20203;-67
2023/08/10 09:45:23;;;;;;;3.00;2.47;;;;;;;18.47;63.97;101815.56;5014161;28;20580;-67
2023/08/10 09:47:49;;;;;;;2.47;2.30;;;;;;;18.44;62.66;101813.22;5014451;28;20590;-67
2023/08/10 09:50:17;;;;;;;3.00;2.87;;;;;;;18.54;60.71;101816.56;5014248;28;20267;-67
2023/08/10 09:52:45;;;;;;;13.37;2.77;;;;;;;18.54;62.36;101816.56;5014131;28;20176;-67
2023/08/10 09:55:12;;;;;;;2.67;2.67;;;;;;;18.54;62.09;101819.28;5014286;28;20240;-67
2023/08/10 09:57:44;;;;;;;2.27;2.17;;;;;;;18.53;61.54;101824.91;5014355;28;20183;-67
2023/08/10 10:00:18;;;;;;;2.27;2.27;;;;;;;18.55;61.84;101830.97;5014225;28;20367;-67
2023/08/10 10:02:46;;;;;;;1.97;1.97;;;;;;;18.57;61.72;101828.94;5014435;28;20180;-66
2023/08/10 10:05:16;;;;;;;2.27;2.17;;;;;;;18.70;60.96;101829.22;5013826;28;20698;-67
2023/08/10 10:08:01;;;;;;;2.57;2.47;;;;;;;18.97;62.97;101825.13;5014211;28;20191;-67
2023/08/10 10:10:30;;;;;;;2.87;2.87;;;;;;;19.05;61.05;101825.91;5013763;28;20202;-67
2023/08/10 10:12:58;;;;;;;3.40;3.00;;;;;;;19.02;61.74;101820.88;5013645;28;20219;-67
2023/08/10 10:15:25;;;;;;;3.60;2.70;;;;;;;19.02;61.04;101820.88;5013671;28;20209;-67
2023/08/10 10:17:52;;;;;;;2.53;2.53;;;;;;;18.92;61.74;101820.28;5013760;28;20208;-67
2023/08/10 10:20:20;;;;;;;2.20;2.20;;;;;;;18.92;61.33;101811.28;5014145;28;20216;-67
2023/08/10 10:22:47;;;;;;;2.63;2.50;;;;;;;19.01;63.08;101805.63;5013650;28;20191;-67
2023/08/10 10:25:15;;;;;;;3.00;3.00;;;;;;;19.22;62.70;101806.84;5013828;28;20208;-67
2023/08/10 10:27:47;;;;;;;3.00;2.20;;;;;;;19.46;60.42;101809.38;5013887;28;20223;-67
2023/08/10 10:30:16;;;;;;;2.50;2.50;;;;;;;19.46;59.80;101802.06;5013923;28;20161;-67
2023/08/10 10:32:48;;;;;;;5.37;2.83;;;;;;;19.64;61.44;101803.63;5013592;28;20195;-67
2023/08/10 10:35:31;;;;;;;3.57;3.30;;;;;;;19.67;61.08;101804.09;5013611;28;20219;-67
2023/08/10 10:37:59;;;;;;;3.03;3.03;;;;;;;19.72;60.09;101793.53;5014104;28;20184;-67
2023/08/10 10:40:27;;;;;;;3.20;2.97;;;;;;;19.70;59.71;101794.72;5013056;28;20235;-67
2023/08/10 10:43:07;;;;;;;3.57;2.93;;;;;;;19.66;60.50;101794.25;5013723;28;20230;-67
2023/08/10 10:45:41;;;;;;;2.87;2.83;;;;;;;19.65;60.69;101806.13;5013714;28;20207;-67
2023/08/10 10:48:11;;;;;;;2.60;2.50;;;;;;;19.52;61.10;101806.75;5013737;28;20171;-67
2023/08/10 10:50:38;;;;;;;2.27;2.27;;;;;;;19.47;61.06;101801.06;5013951;28;20165;-67
2023/08/10 10:53:10;;;;;;;2.37;2.27;;;;;;;19.51;61.30;101798.81;5013294;28;20187;-66
2023/08/10 10:55:42;;;;;;;12.03;2.37;;;;;;;19.65;62.53;101797.16;5013629;28;20227;-66
2023/08/10 10:58:11;;;;;;;2.43;2.37;;;;;;;19.79;59.88;101783.59;5013609;28;20655;-66
2023/08/10 11:00:38;;;;;;;9.00;2.43;;;;;;;19.90;60.23;101788.56;5013744;28;20219;-66
2023/08/10 11:03:10;;;;;;;3.07;2.87;;;;;;;19.93;60.97;101788.19;5013134;28;20243;-66
2023/08/10 11:05:37;;;;;;;2.10;2.10;;;;;;;20.00;60.68;101783.69;5013798;28;20177;-66
2023/08/10 11:08:06;;;;;;;3.67;2.47;;;;;;;20.24;60.28;101785.25;5013755;28;20192;-66
2023/08/10 11:10:36;;;;;;;2.37;2.17;;;;;;;20.16;59.95;101789.94;5013246;28;20191;-67
2023/08/10 11:13:04;;;;;;;2.93;2.83;;;;;;;20.11;59.61;101792.41;5013117;28;20201;-67
2023/08/10 11:15:31;;;;;;;3.63;3.30;;;;;;;20.12;59.72;101785.94;5013162;28;20674;-67
2023/08/10 11:17:58;;;;;;;2.43;2.43;;;;;;;20.07;59.98;101794.66;5013141;28;20189;-67
2023/08/10 11:20:25;;;;;;;2.23;2.13;;;;;;;20.07;59.60;101795.47;5013023;28;20699;-67
2023/08/10 11:22:53;;;;;;;2.80;2.60;;;;;;;20.07;59.84;101786.53;5013557;28;20662;-67
2023/08/10 11:25:24;;;;;;;2.70;2.70;;;;;;;20.11;60.51;101787.84;5013211;28;20209;-67
2023/08/10 11:27:52;;;;;;;2.73;2.70;;;;;;;20.16;60.05;101789.94;5013655;28;20172;-67